createdAt,value
2022-12-19T00:01:25.474Z,46.00
2022-12-19T00:06:26.690Z,39.60
2022-12-19T00:11:27.865Z,43.60
2022-12-19T00:16:29.197Z,44.80
2022-12-19T00:21:28.936Z,43.70
2022-12-19T00:26:30.091Z,47.20
2022-12-19T00:31:31.611Z,41.20
2022-12-19T00:36:30.878Z,39.90
2022-12-19T00:41:32.115Z,47.00
2022-12-19T00:46:33.342Z,44.90
2022-12-19T00:51:34.459Z,41.60
2022-12-19T00:56:37.143Z,40.70
2022-12-19T01:01:35.467Z,40.50
2022-12-19T01:06:36.746Z,53.80
2022-12-19T01:11:38.057Z,45.50
2022-12-19T01:16:39.329Z,44.80
2022-12-19T01:21:40.461Z,42.10
2022-12-19T01:26:41.740Z,42.60
2022-12-19T01:31:42.932Z,44.20
2022-12-19T01:36:44.117Z,43.60
2022-12-19T01:41:46.324Z,44.50
2022-12-19T01:46:45.475Z,44.70
2022-12-19T01:51:46.647Z,46.10
2022-12-19T01:56:51.651Z,43.40
2022-12-19T02:01:51.834Z,44.60
2022-12-19T02:06:49.325Z,41.90
2022-12-19T02:11:51.479Z,46.20
2022-12-19T02:16:50.679Z,43.30
2022-12-19T02:21:54.703Z,42.10
2022-12-19T02:26:52.211Z,43.50
2022-12-19T02:31:53.478Z,43.50
2022-12-19T02:36:54.801Z,44.60
2022-12-19T02:41:54.194Z,43.30
2022-12-19T02:46:55.323Z,44.60
2022-12-19T02:51:56.533Z,42.70
2022-12-19T02:56:57.706Z,40.50
2022-12-19T03:01:59.044Z,39.70
2022-12-19T03:07:00.327Z,35.70
2022-12-19T03:12:17.173Z,38.60
2022-12-19T03:17:02.641Z,37.80
2022-12-19T03:22:04.747Z,37.10
2022-12-19T03:27:03.861Z,35.90
2022-12-19T03:32:04.995Z,37.40
2022-12-19T03:37:06.157Z,39.00
2022-12-19T03:42:07.250Z,39.30
2022-12-19T03:47:08.403Z,37.00
2022-12-19T03:52:10.585Z,37.10
2022-12-19T03:57:09.700Z,37.60
2022-12-19T04:02:11.029Z,39.30
2022-12-19T04:07:12.265Z,40.80
2022-12-19T04:12:13.409Z,37.30
2022-12-19T04:17:14.557Z,38.30
2022-12-19T04:22:15.683Z,37.90
2022-12-19T04:27:18.841Z,41.30
2022-12-19T04:32:17.930Z,40.50
2022-12-19T04:37:19.079Z,39.60
2022-12-19T04:42:20.186Z,38.00
2022-12-19T04:47:21.352Z,39.30
2022-12-19T04:52:22.483Z,36.80
2022-12-19T04:57:23.624Z,38.00
2022-12-19T05:02:24.957Z,37.40
2022-12-19T05:07:26.187Z,36.90
2022-12-19T05:12:27.446Z,37.40
2022-12-19T05:17:28.559Z,36.20
2022-12-19T05:22:29.692Z,39.00
2022-12-19T05:27:31.819Z,39.70
2022-12-19T05:32:32.001Z,41.30
2022-12-19T05:37:31.114Z,37.50
2022-12-19T05:42:31.578Z,36.40
2022-12-19T05:47:32.756Z,42.30
2022-12-19T05:52:33.959Z,37.60
2022-12-19T05:57:35.350Z,37.80
2022-12-19T06:02:36.691Z,35.50
2022-12-19T06:07:37.998Z,39.20
2022-12-19T06:12:39.197Z,38.20
2022-12-19T06:17:40.396Z,34.50
2022-12-19T06:22:41.630Z,30.80
2022-12-19T06:27:43.784Z,29.30
2022-12-19T06:32:43.943Z,30.40
2022-12-19T06:37:43.054Z,29.00
2022-12-19T06:42:44.189Z,31.00
2022-12-19T06:47:46.396Z,31.70
2022-12-19T06:52:45.525Z,32.10
2022-12-19T06:57:46.631Z,31.20
2022-12-19T07:02:47.899Z,29.50
2022-12-19T07:07:49.077Z,33.10
2022-12-19T07:12:50.226Z,32.70
2022-12-19T07:17:51.373Z,33.50
2022-12-19T07:22:52.496Z,29.40
2022-12-19T07:27:53.643Z,31.90
2022-12-19T07:32:54.787Z,33.40
2022-12-19T07:37:55.867Z,28.30
2022-12-19T07:42:57.024Z,29.80
2022-12-19T07:47:58.171Z,29.60
2022-12-19T07:53:00.293Z,29.50
2022-12-19T07:57:59.411Z,32.40
2022-12-19T08:03:00.562Z,31.20
2022-12-19T08:08:02.670Z,33.70
2022-12-19T08:13:02.857Z,31.00
2022-12-19T08:18:02.090Z,33.40
2022-12-19T08:23:03.187Z,32.80
2022-12-19T08:28:04.316Z,27.40
2022-12-19T08:33:06.757Z,27.00
